createdAt,value
2023-01-07T00:05:25.411Z,12.40
2023-01-07T00:15:31.489Z,11.90
2023-01-07T00:25:37.271Z,11.70
2023-01-07T00:35:44.964Z,12.10
2023-01-07T00:45:51.117Z,10.80
2023-01-07T00:55:57.044Z,10.70
2023-01-07T01:06:05.881Z,9.90
2023-01-07T01:16:15.300Z,10.60
2023-01-07T01:26:21.325Z,11.20
2023-01-07T01:36:27.710Z,10.90
2023-01-07T01:46:39.120Z,10.50
2023-01-07T01:56:49.350Z,11.50
2023-01-07T02:07:00.519Z,14.20
2023-01-07T02:17:16.949Z,13.20
2023-01-07T02:27:35.510Z,13.20
2023-01-07T02:37:52.339Z,18.40
2023-01-07T02:48:01.522Z,22.70
2023-01-07T02:58:28.041Z,17.50
2023-01-07T03:09:01.988Z,19.80
2023-01-07T03:19:11.099Z,19.80
2023-01-07T03:29:19.800Z,19.50
2023-01-07T03:39:28.248Z,19.70
2023-01-07T03:49:36.947Z,20.20
2023-01-07T03:59:42.670Z,20.60
2023-01-07T04:09:50.391Z,19.20
2023-01-07T04:19:55.977Z,20.90
2023-01-07T04:30:01.782Z,20.00
2023-01-07T04:40:09.617Z,19.90
2023-01-07T04:50:15.383Z,20.70
2023-01-07T05:00:21.502Z,20.30
2023-01-07T05:10:27.204Z,22.80
2023-01-07T05:20:32.908Z,21.00
2023-01-07T05:30:39.376Z,25.80
2023-01-07T05:40:49.506Z,26.30
2023-01-07T05:50:56.261Z,23.50
2023-01-07T06:01:02.076Z,23.70
2023-01-07T06:11:09.525Z,25.10
2023-01-07T06:21:16.202Z,20.60
2023-01-07T06:31:22.061Z,17.20
2023-01-07T06:41:27.840Z,14.30
2023-01-07T06:51:33.845Z,14.10
2023-01-07T07:01:39.999Z,15.90
2023-01-07T07:11:45.658Z,16.90
2023-01-07T07:21:51.449Z,20.30
2023-01-07T07:31:57.182Z,18.70
2023-01-07T07:42:05.779Z,19.80
2023-01-07T07:52:11.784Z,18.60
2023-01-07T08:02:19.327Z,17.70
2023-01-07T08:12:25.065Z,17.40
2023-01-07T08:22:31.086Z,16.60
2023-01-07T08:32:37.447Z,15.10
2023-01-07T08:42:43.403Z,14.90
2023-01-07T08:52:49.608Z,15.60
2023-01-07T09:02:55.328Z,12.90
2023-01-07T09:13:00.990Z,14.30
2023-01-07T09:23:06.917Z,15.00
2023-01-07T09:33:12.850Z,14.20
2023-01-07T09:43:22.534Z,16.20
2023-01-07T09:53:32.014Z,14.00
2023-01-07T10:03:51.809Z,15.40
2023-01-07T10:14:16.164Z,16.20
2023-01-07T10:24:27.488Z,17.50
2023-01-07T10:34:44.454Z,18.30
2023-01-07T10:45:05.484Z,16.00
2023-01-07T10:55:26.195Z,18.70
2023-01-07T11:05:39.857Z,17.00
2023-01-07T11:15:51.678Z,16.50
2023-01-07T11:26:06.538Z,16.40
2023-01-07T11:36:12.672Z,18.70
2023-01-07T11:46:22.143Z,21.80
2023-01-07T11:56:34.291Z,19.30
2023-01-07T12:06:42.723Z,16.30
2023-01-07T12:16:50.619Z,14.70
2023-01-07T12:27:01.799Z,18.50
2023-01-07T12:37:14.640Z,15.60
2023-01-07T12:47:32.042Z,16.50
2023-01-07T12:57:41.447Z,14.70
2023-01-07T13:07:54.918Z,13.30
2023-01-07T13:18:09.051Z,13.30
2023-01-07T13:28:32.190Z,14.70
2023-01-07T13:38:51.907Z,15.00
2023-01-07T13:48:57.732Z,19.20
2023-01-07T13:59:03.717Z,17.30
2023-01-07T14:09:34.969Z,19.50
2023-01-07T14:19:50.021Z,16.40
2023-01-07T14:30:02.819Z,17.20
2023-01-07T14:41:00.704Z,18.70
2023-01-07T14:51:29.175Z,18.00
2023-01-07T15:01:45.396Z,21.50
2023-01-07T15:12:11.579Z,21.10
2023-01-07T15:22:33.244Z,23.10
2023-01-07T15:32:50.104Z,26.60
2023-01-07T15:42:58.844Z,25.20
2023-01-07T15:53:18.028Z,24.00
2023-01-07T16:03:24.323Z,25.90
2023-01-07T16:13:31.003Z,26.80
2023-01-07T16:23:38.562Z,27.60
2023-01-07T16:33:46.648Z,26.30
2023-01-07T16:43:54.140Z,25.30
2023-01-07T16:54:29.911Z,26.80
2023-01-07T17:04:35.944Z,27.60
2023-01-07T17:14:51.918Z,31.80
2023-01-07T17:25:04.153Z,31.20
2023-01-07T17:35:19.919Z,31.00
2023-01-07T17:45:26.433Z,30.30
2023-01-07T17:55:35.926Z,34.00
2023-01-07T18:05:41.791Z,33.70
2023-01-07T18:15:47.631Z,34.10
2023-01-07T18:25:53.840Z,38.50
2023-01-07T18:35:59.799Z,41.20
2023-01-07T18:46:10.739Z,44.00
2023-01-07T18:56:16.802Z,43.00
2023-01-07T19:06:22.713Z,42.00
2023-01-07T19:16:28.889Z,42.50
2023-01-07T19:26:35.399Z,44.20
2023-01-07T19:36:44.962Z,42.20
2023-01-07T19:46:50.979Z,41.40
2023-01-07T19:56:57.392Z,41.30
2023-01-07T20:07:03.079Z,44.50
2023-01-07T20:17:08.731Z,42.80
2023-01-07T20:27:14.641Z,48.60
2023-01-07T20:37:21.074Z,49.30
2023-01-07T20:47:26.929Z,42.40
2023-01-07T20:57:32.840Z,46.20
2023-01-07T21:07:38.598Z,44.70
2023-01-07T21:17:44.486Z,45.00
2023-01-07T21:27:50.449Z,41.40
2023-01-07T21:37:56.940Z,39.10
2023-01-07T21:48:03.014Z,37.50
2023-01-07T21:58:08.676Z,36.10
2023-01-07T22:08:14.564Z,36.50
2023-01-07T22:18:20.451Z,33.40
2023-01-07T22:28:26.443Z,35.10
2023-01-07T22:38:34.249Z,36.40
2023-01-07T22:48:41.345Z,33.70
2023-01-07T23:08:51.233Z,34.20
2023-01-07T23:18:57.150Z,31.70
2023-01-07T23:29:02.940Z,35.90
2023-01-07T23:39:09.128Z,34.60
2023-01-07T23:49:15.305Z,37.50
2023-01-07T23:59:21.016Z,38.00
